createdAt,value
2023-03-21T00:01:04.959Z,9.02
2023-03-21T00:03:33.799Z,9.05
2023-03-21T00:06:10.723Z,8.02
2023-03-21T00:08:38.348Z,9.27
2023-03-21T00:11:07.500Z,8.30
2023-03-21T00:13:37.761Z,8.73
2023-03-21T00:16:12.186Z,8.90
2023-03-21T00:18:51.820Z,8.48
2023-03-21T00:21:48.806Z,9.23
2023-03-21T00:24:07.573Z,9.20
2023-03-21T00:26:34.377Z,8.02
2023-03-21T00:29:01.158Z,9.90
2023-03-21T00:31:27.976Z,9.95
2023-03-21T00:33:54.876Z,9.70
2023-03-21T00:36:25.336Z,9.75
2023-03-21T00:38:52.000Z,10.10
2023-03-21T00:41:31.626Z,9.43
2023-03-21T00:44:01.689Z,10.88
2023-03-21T00:46:39.753Z,9.57
2023-03-21T00:49:09.257Z,10.02
2023-03-21T00:51:36.171Z,10.98
2023-03-21T00:54:05.263Z,9.65
2023-03-21T00:56:31.971Z,11.02
2023-03-21T00:58:58.868Z,9.90
2023-03-21T01:01:26.052Z,10.65
2023-03-21T01:04:02.946Z,12.35
2023-03-21T01:06:32.783Z,10.10
2023-03-21T01:08:59.349Z,10.07
2023-03-21T01:11:28.278Z,10.45
2023-03-21T01:14:07.167Z,9.98
2023-03-21T01:16:35.805Z,10.90
2023-03-21T01:19:07.001Z,10.63
2023-03-21T01:21:34.087Z,12.13
2023-03-21T01:24:01.161Z,10.73
2023-03-21T01:26:28.686Z,10.65
2023-03-21T01:28:55.284Z,12.25
2023-03-21T01:31:22.480Z,9.65
2023-03-21T01:33:49.433Z,10.88
2023-03-21T01:36:23.186Z,11.80
2023-03-21T01:38:51.528Z,11.70
2023-03-21T01:41:36.715Z,11.00
2023-03-21T01:44:17.453Z,11.02
2023-03-21T01:46:57.347Z,12.57
2023-03-21T01:49:35.479Z,11.12
2023-03-21T01:52:15.232Z,12.63
2023-03-21T01:54:47.738Z,11.98
2023-03-21T01:57:21.760Z,13.32
2023-03-21T01:59:53.771Z,13.00
2023-03-21T02:02:26.881Z,12.35
2023-03-21T02:04:57.616Z,13.48
2023-03-21T02:07:31.025Z,12.18
2023-03-21T02:10:02.772Z,10.85
2023-03-21T02:12:30.191Z,11.98
2023-03-21T02:14:57.186Z,12.95
2023-03-21T02:17:53.900Z,11.25
2023-03-21T02:20:42.236Z,13.85
2023-03-21T02:23:23.866Z,13.23
2023-03-21T02:26:06.013Z,13.45
2023-03-21T02:28:38.919Z,11.85
2023-03-21T02:31:33.805Z,12.02
2023-03-21T02:34:36.713Z,11.23
2023-03-21T02:37:11.621Z,12.82
2023-03-21T02:40:16.345Z,12.35
2023-03-21T02:42:59.422Z,14.38
2023-03-21T02:45:35.705Z,11.98
2023-03-21T02:48:20.312Z,12.90
2023-03-21T02:50:55.105Z,14.32
2023-03-21T02:53:45.441Z,14.45
2023-03-21T02:56:12.372Z,14.35
2023-03-21T02:58:41.462Z,14.57
2023-03-21T03:01:08.616Z,13.62
2023-03-21T03:03:38.791Z,14.75
2023-03-21T03:06:16.418Z,15.18
2023-03-21T03:09:03.007Z,14.32
2023-03-21T03:11:35.957Z,15.10
2023-03-21T03:15:00.220Z,13.05
2023-03-21T03:18:09.672Z,13.50
2023-03-21T03:20:52.692Z,13.75
2023-03-21T03:23:41.300Z,13.45
2023-03-21T03:26:31.100Z,13.62
2023-03-21T03:29:02.586Z,13.18
2023-03-21T03:31:35.013Z,13.80
2023-03-21T03:34:06.582Z,13.38
2023-03-21T03:36:41.360Z,14.82
2023-03-21T03:39:11.194Z,14.70
2023-03-21T03:42:21.711Z,13.98
2023-03-21T03:44:40.243Z,13.88
2023-03-21T03:47:22.844Z,13.05
2023-03-21T03:50:09.234Z,12.93
2023-03-21T03:52:53.648Z,14.10
2023-03-21T03:55:25.893Z,14.38
2023-03-21T03:57:54.957Z,12.98
2023-03-21T04:00:21.551Z,15.10
2023-03-21T04:02:48.617Z,14.38
2023-03-21T04:05:22.847Z,13.57
2023-03-21T04:07:50.668Z,12.55
2023-03-21T04:10:19.459Z,14.32
2023-03-21T04:12:48.191Z,14.70
2023-03-21T04:15:16.346Z,13.45
2023-03-21T04:17:44.765Z,16.00
2023-03-21T04:20:18.677Z,14.70
2023-03-21T04:22:50.684Z,12.65
2023-03-21T04:25:30.790Z,14.35
2023-03-21T04:28:00.399Z,14.75
2023-03-21T04:30:33.550Z,13.27
2023-03-21T04:33:00.640Z,14.07
2023-03-21T04:35:28.473Z,12.98
2023-03-21T04:37:55.736Z,12.05
2023-03-21T04:40:24.541Z,12.85
2023-03-21T04:42:54.487Z,12.13
2023-03-21T04:45:21.697Z,13.25
2023-03-21T04:47:49.407Z,12.75
2023-03-21T04:50:16.203Z,13.40
2023-03-21T04:52:43.027Z,12.52
2023-03-21T04:55:10.654Z,12.93
2023-03-21T04:57:39.877Z,11.63
2023-03-21T05:00:10.043Z,13.45
2023-03-21T05:02:38.378Z,11.90
2023-03-21T05:05:10.407Z,11.40
2023-03-21T05:07:39.114Z,13.18
2023-03-21T05:10:07.933Z,12.65
2023-03-21T05:12:35.187Z,11.60
2023-03-21T05:15:02.259Z,11.15
2023-03-21T05:17:29.998Z,13.13
2023-03-21T05:19:57.175Z,12.93
2023-03-21T05:22:26.178Z,11.50
2023-03-21T05:24:54.681Z,11.55
2023-03-21T05:27:44.694Z,11.35
2023-03-21T05:30:15.712Z,11.65
2023-03-21T05:32:43.215Z,11.82
2023-03-21T05:35:11.078Z,10.18
2023-03-21T05:37:38.320Z,10.32
2023-03-21T05:40:06.641Z,11.07
2023-03-21T05:42:34.390Z,11.05
2023-03-21T05:45:08.738Z,9.57
2023-03-21T05:47:36.067Z,11.27
2023-03-21T05:50:04.129Z,11.52
2023-03-21T05:52:31.459Z,11.02
2023-03-21T05:54:58.930Z,10.13
2023-03-21T05:57:28.212Z,12.10
2023-03-21T05:59:56.101Z,10.93
2023-03-21T06:02:23.110Z,11.70
2023-03-21T06:04:53.502Z,10.90
2023-03-21T06:07:20.682Z,12.30
2023-03-21T06:09:49.213Z,11.63
2023-03-21T06:12:16.283Z,10.98
2023-03-21T06:14:43.085Z,11.40
2023-03-21T06:17:10.520Z,10.35
2023-03-21T06:19:39.901Z,11.00
2023-03-21T06:22:07.224Z,12.05
2023-03-21T06:24:34.549Z,12.25
2023-03-21T06:27:03.505Z,14.38
2023-03-21T06:29:32.941Z,11.90
2023-03-21T06:32:00.076Z,11.65
2023-03-21T06:34:27.107Z,11.32
2023-03-21T06:36:54.161Z,14.43
2023-03-21T06:39:21.463Z,8.30
2023-03-21T06:41:48.406Z,11.52
2023-03-21T06:44:15.321Z,11.80
2023-03-21T06:46:43.538Z,12.35
2023-03-21T06:49:11.505Z,13.20
2023-03-21T06:51:38.291Z,9.75
2023-03-21T06:54:05.198Z,9.73
2023-03-21T06:56:33.207Z,10.43
2023-03-21T06:59:02.186Z,11.68
2023-03-21T07:01:32.284Z,10.88
2023-03-21T07:03:59.945Z,7.87
2023-03-21T07:06:27.256Z,10.95
2023-03-21T07:08:55.337Z,10.93
2023-03-21T07:11:23.624Z,11.05
2023-03-21T07:13:50.996Z,11.70
2023-03-21T07:16:18.619Z,9.00
2023-03-21T07:18:46.051Z,11.27
2023-03-21T07:21:13.339Z,9.05
2023-03-21T07:23:40.671Z,9.82
2023-03-21T07:26:07.620Z,9.05
2023-03-21T07:28:34.279Z,9.63
2023-03-21T07:31:04.640Z,9.70
2023-03-21T07:33:32.861Z,10.52
2023-03-21T07:36:01.921Z,9.25
2023-03-21T07:38:30.366Z,7.05
2023-03-21T07:41:00.155Z,8.32
2023-03-21T07:43:29.182Z,8.98
2023-03-21T07:45:57.421Z,8.27
2023-03-21T07:48:26.820Z,7.78
2023-03-21T07:50:53.383Z,8.35
2023-03-21T07:53:20.276Z,5.35
2023-03-21T07:55:52.422Z,5.87
2023-03-21T07:58:19.064Z,8.10
2023-03-21T08:00:45.722Z,8.88
2023-03-21T08:03:12.658Z,7.70
2023-03-21T08:05:40.558Z,7.87
2023-03-21T08:08:07.619Z,7.62
2023-03-21T08:10:34.915Z,8.27
2023-03-21T08:13:02.075Z,8.32
2023-03-21T08:15:28.776Z,8.52
2023-03-21T08:17:55.808Z,4.37
2023-03-21T08:20:22.769Z,7.37
2023-03-21T08:22:50.209Z,6.75
2023-03-21T08:25:19.004Z,7.57
2023-03-21T08:27:46.117Z,5.40
2023-03-21T08:30:15.881Z,8.27
2023-03-21T08:32:42.889Z,5.82
2023-03-21T08:35:12.353Z,6.72
2023-03-21T08:37:40.681Z,6.05
2023-03-21T08:40:11.293Z,6.45
2023-03-21T08:42:38.701Z,7.60
2023-03-21T08:45:06.135Z,7.12
2023-03-21T08:47:33.013Z,7.03
2023-03-21T08:49:59.892Z,7.72
2023-03-21T08:52:27.187Z,7.82
2023-03-21T08:54:54.754Z,8.02
2023-03-21T08:57:21.356Z,7.55
2023-03-21T08:59:48.013Z,8.25
2023-03-21T09:02:16.179Z,8.90
2023-03-21T09:04:44.054Z,6.80
2023-03-21T09:07:14.405Z,8.45
2023-03-21T09:09:41.664Z,7.07
2023-03-21T09:12:08.383Z,7.28
2023-03-21T09:14:35.399Z,8.95
2023-03-21T09:17:02.156Z,5.12
2023-03-21T09:19:29.724Z,7.53
2023-03-21T09:21:57.309Z,6.85
2023-03-21T09:24:24.165Z,7.90
2023-03-21T09:26:51.053Z,6.93
2023-03-21T09:29:20.722Z,7.72
2023-03-21T09:31:48.004Z,7.20
2023-03-21T09:34:15.058Z,6.80
2023-03-21T09:36:43.670Z,6.85
2023-03-21T09:39:12.108Z,7.43
2023-03-21T09:42:19.117Z,6.87
2023-03-21T09:45:08.065Z,6.30
2023-03-21T09:47:52.359Z,7.18
2023-03-21T09:50:26.785Z,7.07
2023-03-21T09:52:58.144Z,5.28
2023-03-21T09:55:30.467Z,6.93
2023-03-21T09:58:21.352Z,7.37
2023-03-21T10:00:55.958Z,5.95
2023-03-21T10:03:29.114Z,7.03
2023-03-21T10:06:00.963Z,8.32
2023-03-21T10:08:35.903Z,7.07
2023-03-21T10:11:11.981Z,7.22
2023-03-21T10:13:43.552Z,8.75
2023-03-21T10:16:33.693Z,6.87
2023-03-21T10:19:04.862Z,7.28
2023-03-21T10:21:58.502Z,7.87
2023-03-21T10:24:24.717Z,6.62
2023-03-21T10:26:52.881Z,7.57
2023-03-21T10:29:24.131Z,6.90
2023-03-21T10:31:52.420Z,6.82
2023-03-21T10:34:41.106Z,7.30
2023-03-21T10:37:08.294Z,7.30
2023-03-21T10:39:37.897Z,7.43
2023-03-21T10:42:04.530Z,8.30
2023-03-21T10:44:33.850Z,7.80
2023-03-21T10:47:06.544Z,6.47
2023-03-21T10:49:40.757Z,7.10
2023-03-21T10:52:21.899Z,6.10
2023-03-21T10:54:49.680Z,7.45
2023-03-21T10:57:21.169Z,6.47
2023-03-21T10:59:55.182Z,6.18
2023-03-21T11:02:32.738Z,6.03
2023-03-21T11:05:06.010Z,6.93
2023-03-21T11:07:34.989Z,6.68
2023-03-21T11:10:19.957Z,6.87
2023-03-21T11:12:56.593Z,6.18
2023-03-21T11:16:02.382Z,5.40
2023-03-21T11:18:32.814Z,6.05
2023-03-21T11:21:05.848Z,5.05
2023-03-21T11:23:36.887Z,5.50
2023-03-21T11:26:10.203Z,4.87
2023-03-21T11:28:39.698Z,4.87
2023-03-21T11:31:08.736Z,4.10
2023-03-21T11:33:39.945Z,4.85
2023-03-21T11:36:31.438Z,4.60
2023-03-21T11:39:03.130Z,3.50
2023-03-21T11:41:32.738Z,4.15
2023-03-21T11:44:01.187Z,4.00
2023-03-21T11:46:30.770Z,2.47
2023-03-21T11:48:59.670Z,4.18
2023-03-21T11:51:52.848Z,3.33
2023-03-21T11:57:18.094Z,3.85
2023-03-21T11:59:57.438Z,4.15
2023-03-21T12:02:55.350Z,4.75
2023-03-21T12:05:35.883Z,4.20
2023-03-21T12:08:19.544Z,4.22
2023-03-21T12:10:57.884Z,4.60
2023-03-21T12:14:00.156Z,4.70
2023-03-21T12:16:42.787Z,4.07
2023-03-21T12:19:43.118Z,4.97
2023-03-21T12:22:37.091Z,5.05
2023-03-21T12:25:13.571Z,4.65
2023-03-21T12:28:08.729Z,4.43
2023-03-21T12:31:04.898Z,4.12
2023-03-21T12:33:49.785Z,4.40
2023-03-21T12:36:49.184Z,4.22
2023-03-21T12:39:28.409Z,4.25
2023-03-21T12:42:13.141Z,4.05
2023-03-21T12:44:47.256Z,4.00
2023-03-21T12:47:19.555Z,4.80
2023-03-21T12:49:52.000Z,4.03
2023-03-21T12:52:26.234Z,6.30
2023-03-21T12:55:18.725Z,4.03
2023-03-21T12:58:02.849Z,4.07
2023-03-21T13:00:52.567Z,3.40
2023-03-21T13:03:30.581Z,3.22
2023-03-21T13:06:06.820Z,4.57
2023-03-21T13:08:38.960Z,4.40
2023-03-21T13:11:07.608Z,3.42
2023-03-21T13:13:56.222Z,3.30
2023-03-21T13:16:32.077Z,3.72
2023-03-21T13:19:12.780Z,4.43
2023-03-21T13:21:56.694Z,3.53
2023-03-21T13:24:28.875Z,3.35
2023-03-21T13:27:03.540Z,4.03
2023-03-21T13:29:51.798Z,3.17
2023-03-21T13:32:33.068Z,3.00
2023-03-21T13:35:13.026Z,2.42
2023-03-21T13:37:43.157Z,3.20
2023-03-21T13:40:24.125Z,3.00
2023-03-21T13:42:56.321Z,2.95
2023-03-21T13:45:30.533Z,3.53
2023-03-21T13:48:02.921Z,2.78
2023-03-21T13:50:34.722Z,3.55
2023-03-21T13:53:19.837Z,3.17
2023-03-21T13:55:57.405Z,2.08
2023-03-21T13:58:34.429Z,3.08
2023-03-21T14:01:12.931Z,2.45
2023-03-21T14:03:40.737Z,3.08
2023-03-21T14:06:10.191Z,3.42
2023-03-21T14:08:40.744Z,2.45
2023-03-21T14:11:14.383Z,3.00
2023-03-21T14:13:50.755Z,3.65
2023-03-21T14:16:21.317Z,3.22
2023-03-21T14:18:55.933Z,3.00
2023-03-21T14:21:25.955Z,3.95
2023-03-21T14:23:57.910Z,3.95
2023-03-21T14:26:28.522Z,4.05
2023-03-21T14:28:57.421Z,3.72
2023-03-21T14:31:25.670Z,3.95
2023-03-21T14:33:57.154Z,4.28
2023-03-21T14:36:28.079Z,5.10
2023-03-21T14:39:03.405Z,4.20
2023-03-21T14:41:31.995Z,5.72
2023-03-21T14:44:24.721Z,5.47
2023-03-21T14:47:12.200Z,5.27
2023-03-21T14:49:38.978Z,5.43
2023-03-21T14:52:12.746Z,5.07
2023-03-21T14:54:43.920Z,5.28
2023-03-21T14:57:13.926Z,5.35
2023-03-21T14:59:41.626Z,5.75
2023-03-21T15:02:27.786Z,5.68
2023-03-21T15:04:58.371Z,4.50
2023-03-21T15:07:34.088Z,5.07
2023-03-21T15:10:08.419Z,5.07
2023-03-21T15:12:35.307Z,5.28
2023-03-21T15:15:02.601Z,4.93
2023-03-21T15:17:30.498Z,4.87
2023-03-21T15:19:57.159Z,5.37
2023-03-21T15:22:47.443Z,5.75
2023-03-21T15:25:20.545Z,4.53
2023-03-21T15:27:50.340Z,4.45
2023-03-21T15:30:21.699Z,5.07
2023-03-21T15:32:49.765Z,4.00
2023-03-21T15:35:21.007Z,4.70
2023-03-21T15:37:57.588Z,4.82
2023-03-21T15:40:27.181Z,5.40
2023-03-21T15:43:15.003Z,4.35
2023-03-21T15:45:54.364Z,4.10
2023-03-21T15:48:25.557Z,4.55
2023-03-21T15:51:03.545Z,5.57
2023-03-21T15:53:33.222Z,3.92
2023-03-21T15:56:05.277Z,4.82
2023-03-21T15:58:35.989Z,3.42
2023-03-21T16:01:06.517Z,4.85
2023-03-21T16:03:39.913Z,4.47
2023-03-21T16:06:20.202Z,4.25
2023-03-21T16:08:49.703Z,4.45
2023-03-21T16:11:27.592Z,3.67
2023-03-21T16:13:55.939Z,4.30
2023-03-21T16:16:28.349Z,4.68
2023-03-21T16:18:57.267Z,4.75
2023-03-21T16:21:30.025Z,4.80
2023-03-21T16:23:59.616Z,4.53
2023-03-21T16:26:31.503Z,4.10
2023-03-21T16:28:58.921Z,4.47
2023-03-21T16:31:28.618Z,3.78
2023-03-21T16:33:55.256Z,3.85
2023-03-21T16:36:28.887Z,4.43
2023-03-21T16:38:56.031Z,4.43
2023-03-21T16:41:24.173Z,3.70
2023-03-21T16:43:51.701Z,4.10
2023-03-21T16:46:27.268Z,4.65
2023-03-21T16:48:57.082Z,3.75
2023-03-21T16:51:29.923Z,3.55
2023-03-21T16:53:57.250Z,3.20
2023-03-21T16:56:27.423Z,3.20
2023-03-21T16:58:55.297Z,3.80
2023-03-21T17:01:27.742Z,3.55
2023-03-21T17:03:54.353Z,3.72
2023-03-21T17:06:24.126Z,3.62
2023-03-21T17:08:51.889Z,4.07
2023-03-21T17:11:21.507Z,4.62
2023-03-21T17:13:50.337Z,3.85
2023-03-21T17:16:20.331Z,3.95
2023-03-21T17:18:47.805Z,4.37
2023-03-21T17:21:17.443Z,4.72
2023-03-21T17:23:44.799Z,4.43
2023-03-21T17:26:13.974Z,5.20
2023-03-21T17:28:41.625Z,4.03
2023-03-21T17:31:13.902Z,4.15
2023-03-21T17:33:41.396Z,4.45
2023-03-21T17:36:15.172Z,4.72
2023-03-21T17:38:42.579Z,4.82
2023-03-21T17:41:12.166Z,4.62
2023-03-21T17:43:40.336Z,4.82
2023-03-21T17:46:12.421Z,4.32
2023-03-21T17:48:39.237Z,4.47
2023-03-21T17:51:06.382Z,4.40
2023-03-21T17:53:33.168Z,4.40
2023-03-21T17:56:00.201Z,4.28
2023-03-21T17:58:27.801Z,4.18
2023-03-21T18:00:54.342Z,3.85
2023-03-21T18:03:21.082Z,3.72
2023-03-21T18:05:47.714Z,3.60
2023-03-21T18:08:14.176Z,3.65
2023-03-21T18:10:41.950Z,3.30
2023-03-21T18:13:08.961Z,3.80
2023-03-21T18:15:38.068Z,4.00
2023-03-21T18:18:05.574Z,3.75
2023-03-21T18:23:20.201Z,3.85
2023-03-21T18:25:47.174Z,4.32
2023-03-21T18:28:14.170Z,3.72
2023-03-21T18:31:06.992Z,3.33
2023-03-21T18:33:27.761Z,4.03
2023-03-21T18:35:59.001Z,4.07
2023-03-21T18:38:27.384Z,3.58
2023-03-21T18:40:55.204Z,3.90
2023-03-21T18:46:08.894Z,3.83
2023-03-21T18:48:36.001Z,3.75
2023-03-21T18:51:04.125Z,4.15
2023-03-21T18:53:32.076Z,4.57
2023-03-21T18:55:58.623Z,4.50
2023-03-21T18:58:25.192Z,4.32
2023-03-21T19:00:53.092Z,4.93
2023-03-21T19:03:34.097Z,6.43
2023-03-21T19:06:05.520Z,5.90
2023-03-21T19:08:34.040Z,4.87
2023-03-21T19:11:04.377Z,5.12
2023-03-21T19:13:33.779Z,5.18
2023-03-21T19:16:02.500Z,5.43
2023-03-21T19:18:50.227Z,5.82
2023-03-21T19:21:18.370Z,11.15
2023-03-21T19:24:20.899Z,7.75
2023-03-21T19:26:32.351Z,7.03
2023-03-21T19:28:59.051Z,5.95
2023-03-21T19:31:26.101Z,6.12
2023-03-21T19:33:53.006Z,5.87
2023-03-21T19:36:22.770Z,6.93
2023-03-21T19:38:50.905Z,6.95
2023-03-21T19:41:20.211Z,6.53
2023-03-21T19:43:54.157Z,5.93
2023-03-21T19:46:24.326Z,6.65
2023-03-21T19:48:55.934Z,5.28
2023-03-21T19:51:28.749Z,5.55
2023-03-21T19:56:27.066Z,4.68
2023-03-21T19:58:55.004Z,5.03
2023-03-21T20:01:23.338Z,5.85
2023-03-21T20:03:51.674Z,6.07
2023-03-21T20:06:18.437Z,8.30
2023-03-21T20:11:32.604Z,10.00
2023-03-21T20:14:01.327Z,10.75
2023-03-21T20:16:34.276Z,8.68
2023-03-21T20:19:05.221Z,7.03
2023-03-21T20:21:41.095Z,6.03
2023-03-21T20:24:12.199Z,6.43
2023-03-21T20:26:38.906Z,6.30
2023-03-21T20:29:48.464Z,7.80
2023-03-21T20:31:52.588Z,5.90
2023-03-21T20:34:19.171Z,6.62
2023-03-21T20:36:46.264Z,6.40
2023-03-21T20:39:13.337Z,6.05
2023-03-21T20:41:40.308Z,5.50
2023-03-21T20:44:41.667Z,7.07
2023-03-21T20:46:54.372Z,6.68
2023-03-21T20:49:22.488Z,5.93
2023-03-21T20:54:36.695Z,6.50
2023-03-21T20:57:05.037Z,6.25
2023-03-21T20:59:31.913Z,7.70
2023-03-21T21:01:59.006Z,7.72
2023-03-21T21:07:16.781Z,8.82
2023-03-21T21:09:44.902Z,8.80
2023-03-21T21:12:13.055Z,8.88
2023-03-21T21:14:40.674Z,8.63
2023-03-21T21:17:24.582Z,8.77
2023-03-21T21:19:54.116Z,10.70
2023-03-21T21:22:20.784Z,9.73
2023-03-21T21:24:47.311Z,9.23
2023-03-21T21:27:14.183Z,10.30
2023-03-21T21:29:42.626Z,11.23
2023-03-21T21:32:09.263Z,10.38
2023-03-21T21:34:36.562Z,10.55
2023-03-21T21:37:03.334Z,11.50
2023-03-21T21:39:35.308Z,13.50
2023-03-21T21:42:02.148Z,12.27
2023-03-21T21:44:29.321Z,10.93
2023-03-21T21:46:56.760Z,11.77
2023-03-21T21:49:24.132Z,11.15
2023-03-21T21:51:50.590Z,10.35
2023-03-21T21:54:17.459Z,10.55
2023-03-21T21:56:47.632Z,9.85
2023-03-21T21:59:15.879Z,11.55
2023-03-21T22:01:42.468Z,12.07
2023-03-21T22:04:10.707Z,11.98
2023-03-21T22:06:37.320Z,12.27
2023-03-21T22:09:06.300Z,12.20
2023-03-21T22:11:34.199Z,16.85
2023-03-21T22:14:00.718Z,18.95
2023-03-21T22:16:27.529Z,18.83
2023-03-21T22:18:54.349Z,17.00
2023-03-21T22:21:20.841Z,11.25
2023-03-21T22:23:47.300Z,12.65
2023-03-21T22:26:14.586Z,12.88
2023-03-21T22:28:42.382Z,11.20
2023-03-21T22:31:15.023Z,11.20
2023-03-21T22:33:43.369Z,11.25
2023-03-21T22:36:10.516Z,11.73
2023-03-21T22:38:37.645Z,10.77
2023-03-21T22:41:05.843Z,11.52
2023-03-21T22:43:33.461Z,12.40
2023-03-21T22:46:02.237Z,12.07
2023-03-21T22:48:30.391Z,12.00
2023-03-21T22:50:58.079Z,11.05
2023-03-21T22:53:25.108Z,10.13
2023-03-21T22:55:51.853Z,10.60
2023-03-21T22:58:18.599Z,10.30
2023-03-21T23:00:45.314Z,10.63
2023-03-21T23:03:13.897Z,10.93
2023-03-21T23:05:41.085Z,9.10
2023-03-21T23:08:08.322Z,8.60
2023-03-21T23:10:38.757Z,10.88
2023-03-21T23:13:06.185Z,10.25
2023-03-21T23:15:32.737Z,10.27
2023-03-21T23:17:59.529Z,10.07
2023-03-21T23:20:26.003Z,10.00
2023-03-21T23:22:52.548Z,9.68
2023-03-21T23:25:19.819Z,10.52
2023-03-21T23:27:46.605Z,9.27
2023-03-21T23:30:13.549Z,9.70
2023-03-21T23:32:40.404Z,9.82
2023-03-21T23:35:07.692Z,9.80
2023-03-21T23:37:34.551Z,8.65
2023-03-21T23:40:01.572Z,9.32
2023-03-21T23:42:30.048Z,8.95
2023-03-21T23:44:56.578Z,7.70
2023-03-21T23:47:23.373Z,9.75
2023-03-21T23:49:52.065Z,9.13
2023-03-21T23:52:18.642Z,8.63
2023-03-21T23:54:45.556Z,9.57
2023-03-21T23:57:12.292Z,9.60
2023-03-21T23:59:38.840Z,7.50
